Time;durP1;ratioP1;P1;durP2;ratioP2;P2;SDS_P1;SDS_P2;PMS_P1;PMS_P2;Temp;Humidity;BMP_temperature;BMP_pressure;BME280_temperature;BME280_humidity;BME280_pressure;Samples;Min_cycle;Max_cycle;Signal;HPM_P1;HPM_P2
2023/06/20 00:01:37;;;;;;;22.52;13.23;;;16.90;99.90;;;;;;5039864;28;20056;-69
2023/06/20 00:04:03;;;;;;;24.08;15.65;;;16.90;99.90;;;;;;5058793;28;20614;-71
2023/06/20 00:06:28;;;;;;;26.83;19.08;;;17.00;99.90;;;;;;5050006;28;20357;-71
2023/06/20 00:08:57;;;;;;;33.33;19.25;;;17.00;99.90;;;;;;5055218;28;20577;-71
2023/06/20 00:11:23;;;;;;;34.13;18.77;;;16.90;99.90;;;;;;5048334;28;20048;-71
2023/06/20 00:13:49;;;;;;;31.70;18.60;;;16.90;99.90;;;;;;5056884;28;20046;-68
2023/06/20 00:16:20;;;;;;;27.90;17.63;;;16.90;99.90;;;;;;5049083;28;20080;-71
2023/06/20 00:18:53;;;;;;;29.13;18.95;;;16.80;99.90;;;;;;5036466;28;20040;-71
2023/06/20 00:21:21;;;;;;;28.85;18.67;;;16.70;99.90;;;;;;5042236;28;20102;-68
2023/06/20 00:23:47;;;;;;;29.77;18.90;;;16.70;99.90;;;;;;5059973;28;20117;-72
2023/06/20 00:26:13;;;;;;;34.40;19.08;;;16.60;99.90;;;;;;5041652;28;20051;-68
2023/06/20 00:28:39;;;;;;;28.35;18.27;;;16.60;99.90;;;;;;5038721;28;20440;-70
2023/06/20 00:31:05;;;;;;;28.35;17.77;;;16.60;99.90;;;;;;5050446;28;20055;-69
2023/06/20 00:33:30;;;;;;;24.90;17.45;;;16.50;99.90;;;;;;5032260;28;20598;-73
2023/06/20 00:35:56;;;;;;;23.00;16.70;;;16.50;99.90;;;;;;5056693;28;20528;-70
2023/06/20 00:38:21;;;;;;;27.13;18.02;;;16.50;99.90;;;;;;5053921;28;20315;-68
2023/06/20 00:40:49;;;;;;;25.77;16.67;;;16.50;99.90;;;;;;5062575;28;20122;-67
2023/06/20 00:43:17;;;;;;;26.33;17.92;;;16.50;99.90;;;;;;5041151;28;20103;-68
2023/06/20 00:45:43;;;;;;;24.33;15.88;;;16.40;99.90;;;;;;5051420;28;20044;-67
2023/06/20 00:48:08;;;;;;;25.25;16.98;;;16.40;99.90;;;;;;5061592;28;20055;-67
2023/06/20 00:50:34;;;;;;;27.00;17.17;;;16.40;99.90;;;;;;5062735;28;20457;-71
2023/06/20 00:53:05;;;;;;;26.40;17.13;;;16.40;99.90;;;;;;5057298;28;20124;-68
2023/06/20 00:55:34;;;;;;;25.83;17.38;;;16.50;99.90;;;;;;5044623;28;20048;-67
2023/06/20 00:58:03;;;;;;;26.38;16.63;;;16.40;99.90;;;;;;5061727;28;20894;-68
2023/06/20 01:00:32;;;;;;;27.13;16.92;;;16.40;99.90;;;;;;5060014;28;20136;-70
2023/06/20 01:03:03;;;;;;;27.05;17.17;;;16.40;99.90;;;;;;5060485;28;20434;-68
2023/06/20 01:05:30;;;;;;;26.65;16.13;;;16.40;99.90;;;;;;5044275;28;20105;-70
2023/06/20 01:08:03;;;;;;;27.73;15.05;;;16.40;99.90;;;;;;5041799;28;20511;-69
2023/06/20 01:10:46;;;;;;;25.65;16.88;;;16.50;99.90;;;;;;5052870;28;20043;-69
2023/06/20 01:13:31;;;;;;;28.02;16.05;;;16.40;99.90;;;;;;5057973;28;20100;-70
2023/06/20 01:16:24;;;;;;;25.17;15.63;;;16.40;99.90;;;;;;5034663;28;20097;-71
2023/06/20 01:19:10;;;;;;;26.35;14.70;;;16.30;99.90;;;;;;5044505;28;20052;-67
2023/06/20 01:21:44;;;;;;;23.65;14.30;;;16.30;99.90;;;;;;5027251;28;20700;-70
2023/06/20 01:24:23;;;;;;;23.30;13.73;;;16.30;99.90;;;;;;5058157;28;20819;-67
2023/06/20 01:26:54;;;;;;;24.20;13.85;;;16.30;99.90;;;;;;5056863;28;20048;-70
2023/06/20 01:29:45;;;;;;;22.27;14.30;;;16.30;99.90;;;;;;5062155;28;20110;-68
2023/06/20 01:32:25;;;;;;;23.23;14.15;;;16.30;99.90;;;;;;5041176;28;20684;-70
2023/06/20 01:35:19;;;;;;;20.80;14.20;;;16.30;99.90;;;;;;5061245;28;20475;-69
2023/06/20 01:37:51;;;;;;;28.65;15.13;;;16.30;99.90;;;;;;5057602;28;20056;-68
2023/06/20 01:40:20;;;;;;;22.67;15.52;;;16.30;99.90;;;;;;5062025;28;20070;-65
2023/06/20 01:42:50;;;;;;;22.05;13.95;;;16.20;99.90;;;;;;5058714;28;20052;-65
2023/06/20 01:45:19;;;;;;;21.45;14.60;;;16.20;99.90;;;;;;5060445;28;20051;-67
2023/06/20 01:47:51;;;;;;;26.23;15.30;;;16.20;99.90;;;;;;5041938;28;20333;-68
2023/06/20 01:50:25;;;;;;;25.02;16.60;;;16.10;99.90;;;;;;5062208;28;20036;-69
2023/06/20 01:52:52;;;;;;;26.05;15.80;;;16.10;99.90;;;;;;5040981;28;20790;-71
2023/06/20 01:55:20;;;;;;;25.05;15.95;;;16.20;99.90;;;;;;5060262;28;20698;-68
2023/06/20 01:57:54;;;;;;;26.40;15.90;;;16.20;99.90;;;;;;5060512;28;20573;-69
2023/06/20 02:00:23;;;;;;;22.75;14.82;;;16.20;99.90;;;;;;5054996;28;20766;-69
2023/06/20 02:02:49;;;;;;;21.92;15.65;;;16.20;99.90;;;;;;5059572;28;20060;-67
2023/06/20 02:05:16;;;;;;;27.00;15.95;;;16.20;99.90;;;;;;5051733;28;20051;-69
2023/06/20 02:07:43;;;;;;;25.40;15.85;;;16.20;99.90;;;;;;5063335;28;20051;-67
2023/06/20 02:10:12;;;;;;;24.60;16.33;;;16.20;99.90;;;;;;5061272;28;20036;-69
2023/06/20 02:12:43;;;;;;;27.70;15.75;;;16.20;99.90;;;;;;5056905;28;20048;-67
2023/06/20 02:15:13;;;;;;;22.67;15.80;;;16.20;99.90;;;;;;5059696;28;20411;-68
2023/06/20 02:17:43;;;;;;;22.15;14.88;;;16.20;99.90;;;;;;5060677;28;20048;-70
2023/06/20 02:20:13;;;;;;;27.55;16.98;;;16.20;99.90;;;;;;5045011;28;20051;-66
2023/06/20 02:22:43;;;;;;;23.33;15.73;;;16.20;99.90;;;;;;5041648;28;20578;-70
2023/06/20 02:25:20;;;;;;;23.70;15.70;;;16.20;99.90;;;;;;5059054;28;20054;-71
2023/06/20 02:27:48;;;;;;;24.88;15.70;;;16.20;99.90;;;;;;5045044;28;20044;-74
2023/06/20 02:30:18;;;;;;;23.90;14.98;;;16.20;99.90;;;;;;5052857;28;20489;-69
2023/06/20 02:32:45;;;;;;;25.63;14.82;;;16.20;99.90;;;;;;5041042;28;20040;-68
2023/06/20 02:35:21;;;;;;;21.70;14.85;;;16.20;99.90;;;;;;5034706;28;20044;-67
2023/06/20 02:37:48;;;;;;;23.42;14.68;;;16.20;99.90;;;;;;5052560;28;20054;-71
2023/06/20 02:40:14;;;;;;;26.83;15.85;;;16.20;99.90;;;;;;5042995;28;20163;-71
2023/06/20 02:42:42;;;;;;;26.90;16.73;;;16.20;99.90;;;;;;5041531;28;20683;-68
2023/06/20 02:45:12;;;;;;;25.60;16.40;;;16.20;99.90;;;;;;5043295;28;20052;-70
2023/06/20 02:47:50;;;;;;;31.10;17.63;;;16.10;99.90;;;;;;5060785;28;20052;-68
2023/06/20 02:50:24;;;;;;;31.23;17.98;;;16.10;99.90;;;;;;5042756;28;20047;-67
2023/06/20 02:53:05;;;;;;;32.60;17.63;;;16.10;99.90;;;;;;5042031;28;20048;-71
2023/06/20 02:55:45;;;;;;;29.38;18.45;;;16.10;99.90;;;;;;5059174;28;20225;-68
2023/06/20 02:58:21;;;;;;;29.50;18.40;;;16.10;99.90;;;;;;5060744;28;20465;-68
2023/06/20 03:00:58;;;;;;;28.42;18.08;;;16.10;99.90;;;;;;5043774;28;20087;-67
2023/06/20 03:03:38;;;;;;;30.98;19.65;;;16.10;99.90;;;;;;5058461;28;20052;-70
2023/06/20 03:06:06;;;;;;;32.00;20.10;;;16.10;99.90;;;;;;5055752;28;20580;-69
2023/06/20 03:08:33;;;;;;;30.27;21.75;;;16.10;99.90;;;;;;5042405;28;20044;-68
2023/06/20 03:11:00;;;;;;;32.25;20.98;;;16.10;99.90;;;;;;5043737;28;20392;-74
2023/06/20 03:13:27;;;;;;;33.75;22.25;;;16.10;99.90;;;;;;5057981;28;20043;-67
2023/06/20 03:15:55;;;;;;;35.58;21.73;;;16.20;99.90;;;;;;5032722;28;20137;-69
2023/06/20 03:18:20;;;;;;;34.15;22.17;;;16.20;99.90;;;;;;5061571;28;20063;-69
2023/06/20 03:20:49;;;;;;;40.92;24.27;;;16.20;99.90;;;;;;5034453;28;20697;-72
2023/06/20 03:23:16;;;;;;;33.88;22.83;;;16.20;99.90;;;;;;5031176;28;20052;-67
2023/06/20 03:25:45;;;;;;;35.40;23.92;;;16.20;99.90;;;;;;5055753;28;20597;-71
2023/06/20 03:28:24;;;;;;;35.20;23.35;;;16.30;99.90;;;;;;5061610;28;20071;-69
2023/06/20 03:30:56;;;;;;;35.80;22.58;;;16.20;99.90;;;;;;5041834;28;20123;-67
2023/06/20 03:33:21;;;;;;;33.55;22.98;;;16.30;99.90;;;;;;5058572;28;20100;-72
2023/06/20 03:35:47;;;;;;;38.83;23.17;;;16.30;99.90;;;;;;5058665;28;20070;-68
2023/06/20 03:38:13;;;;;;;33.00;22.27;;;16.30;99.90;;;;;;5061370;28;20063;-71
2023/06/20 03:40:42;;;;;;;35.13;22.65;;;16.30;99.90;;;;;;5041735;28;20054;-68
2023/06/20 03:43:09;;;;;;;33.83;21.73;;;16.30;99.90;;;;;;5040601;28;20048;-68
2023/06/20 03:45:43;;;;;;;34.10;21.08;;;16.30;99.90;;;;;;5048882;28;20571;-69
2023/06/20 03:48:09;;;;;;;29.80;20.75;;;16.30;99.90;;;;;;5051405;28;20051;-67
2023/06/20 03:50:44;;;;;;;32.08;21.38;;;16.40;99.90;;;;;;5060785;28;20051;-68
2023/06/20 03:53:10;;;;;;;31.67;21.65;;;16.40;99.90;;;;;;5052691;28;20044;-70
2023/06/20 03:55:36;;;;;;;32.78;21.05;;;16.40;99.90;;;;;;5071258;28;20112;-69
2023/06/20 03:58:01;;;;;;;34.75;22.35;;;16.40;99.90;;;;;;5055196;28;20047;-68
2023/06/20 04:00:27;;;;;;;38.22;21.15;;;16.40;99.90;;;;;;5042618;28;20067;-68
2023/06/20 04:02:53;;;;;;;29.90;21.83;;;16.40;99.90;;;;;;5065761;28;20052;-71
2023/06/20 04:05:19;;;;;;;28.00;19.95;;;16.40;99.90;;;;;;5072092;28;20051;-72
2023/06/20 04:08:00;;;;;;;30.27;21.80;;;16.50;99.90;;;;;;5062152;28;20055;-70
2023/06/20 04:10:31;;;;;;;26.10;19.20;;;16.40;99.90;;;;;;5070761;28;20050;-66
2023/06/20 04:12:59;;;;;;;30.75;20.73;;;16.40;99.90;;;;;;5060549;28;20055;-69
2023/06/20 04:15:34;;;;;;;29.20;20.70;;;16.50;99.90;;;;;;5061515;28;20044;-69
2023/06/20 04:18:01;;;;;;;31.27;20.05;;;16.50;99.90;;;;;;5054641;28;20067;-73
2023/06/20 04:20:26;;;;;;;30.60;20.35;;;16.50;99.90;;;;;;5061790;28;20416;-72
2023/06/20 04:23:11;;;;;;;27.98;19.73;;;16.50;99.90;;;;;;5051065;28;20344;-69
2023/06/20 04:25:37;;;;;;;28.65;20.17;;;16.50;99.90;;;;;;5071728;28;20044;-69
2023/06/20 04:28:03;;;;;;;28.92;19.95;;;16.50;99.90;;;;;;5054633;28;20384;-67
2023/06/20 04:30:28;;;;;;;30.33;20.05;;;16.50;99.90;;;;;;5060031;28;21631;-72
2023/06/20 04:32:54;;;;;;;28.92;19.30;;;16.50;99.90;;;;;;5068539;28;20044;-69
2023/06/20 04:35:21;;;;;;;30.05;19.73;;;16.50;99.90;;;;;;5062032;28;20055;-68
2023/06/20 04:37:51;;;;;;;28.75;19.60;;;16.60;99.90;;;;;;5051398;28;20478;-69
2023/06/20 04:40:27;;;;;;;30.30;19.98;;;16.60;99.90;;;;;;5054169;28;20040;-70
2023/06/20 04:42:53;;;;;;;30.63;19.92;;;16.60;99.90;;;;;;5050297;28;20044;-70
2023/06/20 04:45:27;;;;;;;27.00;19.08;;;16.60;99.90;;;;;;5044002;28;20099;-70
2023/06/20 04:47:53;;;;;;;31.40;21.13;;;16.60;99.90;;;;;;5052344;28;20055;-69
2023/06/20 04:50:19;;;;;;;28.55;20.73;;;16.70;99.90;;;;;;5053695;28;20032;-69
2023/06/20 04:52:47;;;;;;;30.30;20.05;;;16.70;99.90;;;;;;5061350;28;20435;-70
2023/06/20 04:55:16;;;;;;;28.55;20.95;;;16.80;99.90;;;;;;5073290;28;20642;-69
2023/06/20 04:57:42;;;;;;;28.85;20.15;;;16.80;99.90;;;;;;5067890;28;20186;-69
2023/06/20 05:00:13;;;;;;;28.20;19.23;;;16.80;99.90;;;;;;5066665;28;20155;-69
2023/06/20 05:02:42;;;;;;;27.20;18.55;;;16.90;99.90;;;;;;5052283;28;20114;-70
2023/06/20 05:05:11;;;;;;;30.20;18.80;;;16.90;99.90;;;;;;5055087;28;20044;-69
2023/06/20 05:07:40;;;;;;;27.13;18.60;;;17.00;99.90;;;;;;5065974;28;20040;-70
2023/06/20 05:10:06;;;;;;;27.92;17.80;;;17.10;99.90;;;;;;5054608;28;20040;-71
2023/06/20 05:12:32;;;;;;;24.08;16.77;;;17.20;99.90;;;;;;5061330;28;20036;-69
2023/06/20 05:14:59;;;;;;;23.83;16.67;;;17.20;99.90;;;;;;5055814;28;20256;-70
2023/06/20 05:17:24;;;;;;;26.00;16.85;;;17.20;99.90;;;;;;5054711;28;20112;-68
2023/06/20 05:19:50;;;;;;;26.35;16.77;;;17.30;99.90;;;;;;5070400;28;20289;-72
2023/06/20 05:22:16;;;;;;;24.70;16.52;;;17.30;99.90;;;;;;5048629;28;20139;-73
2023/06/20 05:24:42;;;;;;;31.88;16.27;;;17.40;99.90;;;;;;5058535;28;20078;-68
2023/06/20 05:27:10;;;;;;;26.10;15.63;;;17.60;99.90;;;;;;5069842;28;20040;-68
2023/06/20 05:29:39;;;;;;;26.90;15.43;;;17.60;99.90;;;;;;5057393;28;20075;-71
2023/06/20 05:32:06;;;;;;;25.25;14.40;;;17.70;99.90;;;;;;5054000;28;20535;-69
2023/06/20 05:34:32;;;;;;;22.25;15.85;;;17.80;99.90;;;;;;5066523;28;20062;-71
2023/06/20 05:36:58;;;;;;;26.98;14.70;;;17.90;99.90;;;;;;5066096;28;20883;-69
2023/06/20 05:39:24;;;;;;;21.05;14.50;;;17.90;99.90;;;;;;5056922;28;20044;-74
2023/06/20 05:41:50;;;;;;;23.25;14.38;;;18.00;99.90;;;;;;5052437;28;20688;-67
2023/06/20 05:44:15;;;;;;;20.75;13.35;;;18.00;99.90;;;;;;5071691;28;20262;-69
2023/06/20 05:46:41;;;;;;;22.75;14.75;;;18.10;99.90;;;;;;5049425;28;20414;-70
2023/06/20 05:49:15;;;;;;;21.75;14.73;;;18.10;99.90;;;;;;5072635;28;20040;-73
2023/06/20 05:51:44;;;;;;;20.20;14.50;;;18.20;99.90;;;;;;5069302;28;20043;-68
2023/06/20 05:54:10;;;;;;;22.40;16.00;;;18.20;99.90;;;;;;5073628;28;20075;-64
2023/06/20 05:56:35;;;;;;;22.55;15.85;;;18.30;99.90;;;;;;5073315;28;20140;-68
2023/06/20 05:59:01;;;;;;;24.55;15.68;;;18.30;99.90;;;;;;5072822;28;20056;-65
2023/06/20 06:01:27;;;;;;;20.42;15.23;;;18.40;99.90;;;;;;5065798;28;20059;-67
2023/06/20 06:03:53;;;;;;;26.05;16.48;;;18.50;99.90;;;;;;5057510;28;20601;-67
2023/06/20 06:06:18;;;;;;;22.60;15.80;;;18.50;99.90;;;;;;5069978;28;20375;-64
2023/06/20 06:08:51;;;;;;;22.15;15.60;;;18.50;99.90;;;;;;5048313;28;20040;-64
2023/06/20 06:11:17;;;;;;;24.92;16.70;;;18.60;99.90;;;;;;5071943;28;20043;-67
2023/06/20 06:13:42;;;;;;;20.38;14.75;;;18.60;99.90;;;;;;5053291;28;20036;-67
2023/06/20 06:16:08;;;;;;;23.70;15.60;;;18.70;99.90;;;;;;5050843;28;20074;-66
2023/06/20 06:18:34;;;;;;;24.20;16.52;;;18.80;99.90;;;;;;5055329;28;20076;-64
2023/06/20 06:21:00;;;;;;;18.50;14.55;;;18.90;99.90;;;;;;5054423;28;20179;-68
2023/06/20 06:23:27;;;;;;;27.67;16.50;;;19.00;99.90;;;;;;5071061;28;20082;-67
2023/06/20 06:25:52;;;;;;;23.13;15.27;;;19.00;99.90;;;;;;5073392;28;20057;-65
2023/06/20 06:28:18;;;;;;;22.35;15.70;;;19.10;99.90;;;;;;5072579;28;20686;-66
2023/06/20 06:30:44;;;;;;;22.27;14.82;;;19.20;99.90;;;;;;5057948;28;20036;-67
2023/06/20 06:33:11;;;;;;;20.60;14.38;;;19.20;99.90;;;;;;5071903;28;20052;-66
2023/06/20 06:35:37;;;;;;;24.75;15.15;;;19.30;99.90;;;;;;5074217;28;20132;-68
2023/06/20 06:38:05;;;;;;;18.02;13.40;;;19.40;99.90;;;;;;5071732;28;20866;-67
2023/06/20 06:40:31;;;;;;;19.15;13.00;;;19.50;99.90;;;;;;5074335;28;20070;-67
2023/06/20 06:42:58;;;;;;;20.42;13.93;;;19.70;99.90;;;;;;5066474;28;20275;-65
2023/06/20 06:45:23;;;;;;;19.73;12.68;;;19.80;99.90;;;;;;5058130;28;20075;-62
2023/06/20 06:47:49;;;;;;;16.70;12.68;;;19.90;99.90;;;;;;5052511;28;20127;-68
2023/06/20 06:50:15;;;;;;;21.35;13.45;;;20.10;99.90;;;;;;5048541;28;20565;-66
2023/06/20 06:52:41;;;;;;;17.65;12.70;;;20.20;99.90;;;;;;5062614;28;20399;-65
2023/06/20 06:55:07;;;;;;;15.13;11.70;;;20.40;99.90;;;;;;5074305;28;20043;-66
2023/06/20 06:57:33;;;;;;;19.15;13.02;;;20.50;99.90;;;;;;5063504;28;20056;-64
2023/06/20 06:59:59;;;;;;;19.45;11.85;;;20.60;99.90;;;;;;5067678;28;20598;-66
2023/06/20 07:02:27;;;;;;;26.95;12.73;;;20.60;99.90;;;;;;5063198;28;20036;-64
2023/06/20 07:04:53;;;;;;;18.55;11.98;;;20.70;99.90;;;;;;5064728;28;20056;-66
2023/06/20 07:07:19;;;;;;;17.67;12.23;;;20.80;99.90;;;;;;5069920;28;20052;-75
2023/06/20 07:09:44;;;;;;;16.25;12.07;;;20.90;99.90;;;;;;5051595;28;20048;-69
2023/06/20 07:12:10;;;;;;;19.02;12.50;;;20.90;99.90;;;;;;5067636;28;20127;-64
2023/06/20 07:14:36;;;;;;;18.20;11.75;;;21.00;99.90;;;;;;5071061;28;20614;-66
2023/06/20 07:17:01;;;;;;;19.40;12.43;;;21.00;99.90;;;;;;5064760;28;20044;-69
2023/06/20 07:19:27;;;;;;;17.70;12.27;;;21.10;99.90;;;;;;5070051;28;20497;-69
2023/06/20 07:21:52;;;;;;;20.50;11.95;;;21.10;99.90;;;;;;5065027;28;20040;-66
2023/06/20 07:24:18;;;;;;;16.40;12.00;;;21.20;99.90;;;;;;5064933;28;20044;-71
2023/06/20 07:26:44;;;;;;;18.80;12.25;;;21.20;99.90;;;;;;5053733;28;20047;-68
2023/06/20 07:29:10;;;;;;;18.05;12.15;;;21.30;99.90;;;;;;5069438;28;20426;-68
2023/06/20 07:31:36;;;;;;;23.58;12.45;;;21.40;99.90;;;;;;5062888;28;20452;-68
2023/06/20 07:34:01;;;;;;;16.95;12.10;;;21.40;99.90;;;;;;5071984;28;20131;-69
2023/06/20 07:36:27;;;;;;;18.33;12.55;;;21.60;99.90;;;;;;5071920;28;20101;-70
2023/06/20 07:38:52;;;;;;;16.63;12.60;;;21.60;99.90;;;;;;5072111;28;20119;-71
2023/06/20 07:41:18;;;;;;;17.15;12.82;;;21.60;99.90;;;;;;5061973;28;20051;-68
2023/06/20 07:43:44;;;;;;;17.73;12.27;;;21.60;99.90;;;;;;5050150;28;20502;-70
2023/06/20 07:46:09;;;;;;;17.95;12.35;;;21.60;99.90;;;;;;5073085;28;20078;-67
2023/06/20 07:48:35;;;;;;;18.27;12.65;;;21.70;99.90;;;;;;5065358;28;20491;-70
2023/06/20 07:51:01;;;;;;;20.15;14.13;;;21.80;99.90;;;;;;5061970;28;20460;-69
2023/06/20 07:53:27;;;;;;;17.77;13.63;;;21.90;99.90;;;;;;5069900;28;20122;-69
2023/06/20 07:55:54;;;;;;;17.67;12.65;;;21.90;99.90;;;;;;5072607;28;20044;-71
2023/06/20 07:58:20;;;;;;;16.27;13.48;;;21.80;99.90;;;;;;5053634;28;20044;-67
2023/06/20 08:00:46;;;;;;;19.98;12.80;;;22.00;99.90;;;;;;5062199;28;20171;-67
2023/06/20 08:03:12;;;;;;;19.83;13.48;;;21.90;99.90;;;;;;5067053;28;20108;-67
2023/06/20 08:05:38;;;;;;;22.00;13.50;;;21.90;99.90;;;;;;5062326;28;20047;-68
2023/06/20 08:08:04;;;;;;;18.00;12.63;;;21.90;99.90;;;;;;5065715;28;20121;-68
2023/06/20 08:10:30;;;;;;;18.55;12.98;;;21.80;99.90;;;;;;5044685;28;20326;-65
2023/06/20 08:12:55;;;;;;;18.30;12.88;;;21.70;99.90;;;;;;5069795;28;20039;-67
2023/06/20 08:15:21;;;;;;;18.40;13.43;;;21.70;99.90;;;;;;5073723;28;20138;-66
2023/06/20 08:17:47;;;;;;;19.05;13.45;;;21.70;99.90;;;;;;5048169;28;20036;-66
2023/06/20 08:20:13;;;;;;;16.67;12.80;;;21.60;99.90;;;;;;5043864;28;20102;-66
2023/06/20 08:22:38;;;;;;;16.67;12.70;;;21.60;99.90;;;;;;5068441;28;20612;-67
2023/06/20 08:25:05;;;;;;;19.63;12.85;;;21.60;99.90;;;;;;5063036;28;20044;-64
2023/06/20 08:27:31;;;;;;;17.38;12.48;;;21.50;99.90;;;;;;5053386;28;20604;-69
2023/06/20 08:29:57;;;;;;;18.55;12.73;;;21.50;99.90;;;;;;5072094;28;20502;-69
2023/06/20 08:32:23;;;;;;;17.58;12.55;;;21.50;99.90;;;;;;5061970;28;20047;-66
2023/06/20 08:34:49;;;;;;;21.50;13.55;;;21.50;99.90;;;;;;5062105;28;20447;-68
2023/06/20 08:37:16;;;;;;;18.15;12.20;;;21.50;99.90;;;;;;5046046;28;20143;-65
2023/06/20 08:39:42;;;;;;;15.15;11.60;;;21.50;99.90;;;;;;5053585;28;20040;-70
2023/06/20 08:42:12;;;;;;;19.58;12.50;;;21.60;99.90;;;;;;5060985;28;20044;-70
2023/06/20 08:44:39;;;;;;;20.17;12.57;;;21.70;99.90;;;;;;5071476;28;20044;-67
2023/06/20 08:47:05;;;;;;;18.50;12.70;;;21.70;99.90;;;;;;5046908;28;21299;-67
2023/06/20 08:49:31;;;;;;;16.50;11.85;;;21.80;99.90;;;;;;5069859;28;20082;-67
2023/06/20 08:52:07;;;;;;;22.90;12.73;;;21.70;99.90;;;;;;5062317;28;20120;-68
2023/06/20 08:54:38;;;;;;;18.48;12.13;;;21.90;99.90;;;;;;5064051;28;20051;-71
2023/06/20 08:57:06;;;;;;;18.27;13.00;;;21.90;99.90;;;;;;5071875;28;20040;-66
2023/06/20 08:59:33;;;;;;;15.77;12.40;;;22.00;99.90;;;;;;5056136;28;20060;-66
2023/06/20 09:01:59;;;;;;;18.38;12.00;;;22.00;99.90;;;;;;5074645;28;20056;-70
2023/06/20 09:04:27;;;;;;;18.08;12.52;;;22.10;99.90;;;;;;5056580;28;20048;-67
2023/06/20 09:06:53;;;;;;;13.02;10.80;;;22.20;99.90;;;;;;5075998;28;20052;-70
2023/06/20 09:09:21;;;;;;;13.70;11.20;;;22.30;99.90;;;;;;5048745;28;20129;-68
2023/06/20 09:11:56;;;;;;;14.15;11.43;;;22.30;99.90;;;;;;5058840;28;20040;-67
2023/06/20 09:14:26;;;;;;;18.23;11.43;;;22.40;99.90;;;;;;5057484;28;20067;-65
2023/06/20 09:16:51;;;;;;;14.98;10.77;;;22.50;99.90;;;;;;5067464;28;20036;-66
2023/06/20 09:19:17;;;;;;;15.13;10.93;;;22.60;99.90;;;;;;5066784;28;20052;-69
2023/06/20 09:21:43;;;;;;;17.15;10.73;;;22.60;99.90;;;;;;5075777;28;20072;-65
2023/06/20 09:24:09;;;;;;;17.23;10.57;;;22.70;99.90;;;;;;5068430;28;20055;-67
2023/06/20 09:26:34;;;;;;;13.60;10.55;;;22.80;99.90;;;;;;5068583;28;20050;-71
2023/06/20 09:29:15;;;;;;;14.50;10.52;;;22.90;99.90;;;;;;5052422;28;20048;-67
2023/06/20 09:31:49;;;;;;;14.43;12.95;;;23.00;99.90;;;;;;5041049;28;20314;-68
2023/06/20 09:34:19;;;;;;;16.73;10.57;;;23.10;99.90;;;;;;5056813;28;20388;-68
2023/06/20 09:36:46;;;;;;;29.52;24.73;;;23.30;99.90;;;;;;5049259;28;20059;-71
2023/06/20 09:39:17;;;;;;;14.70;9.60;;;23.40;99.90;;;;;;5070037;28;20109;-71
2023/06/20 09:41:50;;;;;;;15.05;10.15;;;23.50;99.90;;;;;;5058181;28;20151;-69
2023/06/20 09:44:20;;;;;;;12.73;8.45;;;23.60;99.90;;;;;;5064858;28;20166;-67
2023/06/20 09:46:46;;;;;;;18.33;10.10;;;23.80;99.90;;;;;;5075857;28;20063;-69
2023/06/20 09:49:14;;;;;;;14.02;9.48;;;24.00;99.90;;;;;;5046529;28;20456;-67
2023/06/20 09:51:54;;;;;;;14.10;9.52;;;24.20;99.90;;;;;;5074460;28;20051;-65
2023/06/20 09:54:32;;;;;;;14.85;9.85;;;24.40;99.90;;;;;;5069047;28;20048;-69
2023/06/20 09:57:04;;;;;;;14.15;9.43;;;24.70;99.90;;;;;;5075181;28;20044;-67
2023/06/20 09:59:31;;;;;;;11.77;9.40;;;24.80;99.90;;;;;;5070511;28;20063;-69
2023/06/20 10:01:59;;;;;;;13.30;9.00;;;24.90;99.90;;;;;;5064789;28;20052;-71
2023/06/20 10:04:27;;;;;;;12.48;9.48;;;25.00;99.90;;;;;;5070030;28;20105;-69
2023/06/20 10:06:55;;;;;;;14.05;8.90;;;25.10;99.90;;;;;;5058496;28;20050;-67
2023/06/20 10:09:21;;;;;;;12.48;8.77;;;25.20;99.90;;;;;;5071596;28;20043;-70
2023/06/20 10:11:48;;;;;;;16.33;8.35;;;25.30;99.90;;;;;;5066563;28;20925;-68
2023/06/20 10:14:14;;;;;;;13.35;7.95;;;25.50;99.90;;;;;;5051193;28;20036;-64
2023/06/20 10:16:50;;;;;;;14.65;10.00;;;25.50;99.90;;;;;;5075376;28;20499;-66
2023/06/20 10:19:17;;;;;;;11.93;9.35;;;25.50;99.90;;;;;;5053632;28;20044;-69
2023/06/20 10:22:00;;;;;;;13.15;8.65;;;25.40;99.90;;;;;;5058181;28;20112;-65
2023/06/20 10:24:28;;;;;;;13.32;9.10;;;25.30;99.90;;;;;;5069476;28;20067;-66
2023/06/20 10:26:56;;;;;;;12.38;8.95;;;25.30;99.90;;;;;;5067005;28;20055;-66
2023/06/20 10:29:22;;;;;;;16.38;9.40;;;25.40;99.90;;;;;;5066254;28;20062;-71
2023/06/20 10:32:08;;;;;;;11.45;7.72;;;25.50;99.90;;;;;;5073577;28;20395;-66
2023/06/20 10:34:39;;;;;;;12.38;8.05;;;25.50;99.90;;;;;;5050244;28;20040;-66
2023/06/20 10:37:18;;;;;;;10.07;6.90;;;25.60;99.90;;;;;;5068744;28;20040;-66
2023/06/20 10:39:57;;;;;;;10.18;7.50;;;25.70;99.90;;;;;;5075320;28;20048;-67
2023/06/20 10:42:39;;;;;;;12.07;7.80;;;25.80;99.80;;;;;;5070322;28;20131;-72
2023/06/20 10:45:21;;;;;;;10.70;8.05;;;26.00;99.90;;;;;;5050805;28;20087;-69
2023/06/20 10:47:47;;;;;;;13.65;8.00;;;26.00;99.60;;;;;;5070361;28;20051;-69
2023/06/20 10:50:14;;;;;;;14.18;10.13;;;26.10;99.90;;;;;;5070879;28;20490;-72
2023/06/20 10:52:40;;;;;;;14.15;8.57;;;26.10;99.60;;;;;;5072415;28;20456;-69
2023/06/20 10:55:16;;;;;;;12.32;10.02;;;26.10;99.90;;;;;;5050660;28;20049;-66
2023/06/20 10:57:46;;;;;;;11.80;8.63;;;26.20;99.30;;;;;;5072597;28;20048;-68
2023/06/20 11:00:19;;;;;;;11.88;8.35;;;26.00;99.30;;;;;;5071800;28;20068;-70
2023/06/20 11:02:47;;;;;;;11.37;8.03;;;26.00;99.80;;;;;;5038040;28;20044;-67
2023/06/20 11:05:13;;;;;;;14.52;8.45;;;26.10;99.70;;;;;;5066082;28;20048;-72
2023/06/20 11:07:59;;;;;;;10.57;7.60;;;26.20;99.90;;;;;;5046968;28;20135;-69
2023/06/20 11:10:35;;;;;;;10.88;8.55;;;26.20;99.90;;;;;;5054423;28;20139;-66
2023/06/20 11:13:04;;;;;;;12.32;8.85;;;26.20;99.40;;;;;;5069053;28;20391;-71
2023/06/20 11:15:32;;;;;;;9.55;7.22;;;26.20;99.20;;;;;;5064678;28;20506;-72
2023/06/20 11:18:07;;;;;;;9.43;6.35;;;26.00;99.20;;;;;;5052280;28;20346;-65
2023/06/20 11:20:39;;;;;;;10.95;6.80;;;26.00;99.60;;;;;;5063617;28;20408;-73
2023/06/20 11:23:06;;;;;;;12.95;7.28;;;26.20;99.60;;;;;;5052995;28;20051;-67
2023/06/20 11:25:34;;;;;;;8.85;6.75;;;26.30;99.40;;;;;;5063005;28;20071;-66
2023/06/20 11:28:18;;;;;;;9.75;6.78;;;26.40;99.30;;;;;;5048636;28;20039;-68
2023/06/20 11:30:48;;;;;;;9.07;6.55;;;26.60;99.40;;;;;;5045564;28;20704;-69
2023/06/20 11:33:15;;;;;;;11.70;7.32;;;26.90;99.20;;;;;;5069494;28;20040;-68
2023/06/20 11:35:52;;;;;;;10.95;7.35;;;27.00;98.50;;;;;;5072314;28;20040;-65
2023/06/20 11:38:23;;;;;;;11.55;7.25;;;26.90;98.00;;;;;;5073292;28;20056;-68
2023/06/20 11:41:03;;;;;;;10.65;6.65;;;27.00;98.40;;;;;;5070561;28;20510;-65
2023/06/20 11:43:37;;;;;;;9.82;7.18;;;27.00;98.20;;;;;;5052805;28;20415;-65
2023/06/20 11:46:03;;;;;;;11.32;7.53;;;27.10;98.30;;;;;;5056279;28;20360;-64
2023/06/20 11:48:29;;;;;;;11.13;7.03;;;26.90;98.00;;;;;;5070320;28;20065;-66
2023/06/20 11:51:00;;;;;;;9.07;6.85;;;26.90;98.10;;;;;;5055989;28;20497;-66
2023/06/20 11:53:31;;;;;;;11.32;7.82;;;26.80;98.40;;;;;;5071083;28;20052;-66
2023/06/20 11:55:59;;;;;;;9.80;7.53;;;26.80;98.60;;;;;;5072102;28;20347;-66
2023/06/20 11:58:26;;;;;;;10.27;7.32;;;27.00;98.70;;;;;;5056617;28;20132;-69
2023/06/20 12:01:13;;;;;;;11.05;6.60;;;27.10;98.80;;;;;;5044938;28;20071;-65
2023/06/20 12:03:44;;;;;;;9.10;6.38;;;27.30;98.40;;;;;;5070471;28;20431;-65
2023/06/20 12:06:52;;;;;;;9.43;6.60;;;27.50;97.70;;;;;;5073609;28;20186;-68
2023/06/20 12:09:18;;;;;;;10.60;5.60;;;27.70;97.40;;;;;;5045942;28;20079;-69
2023/06/20 12:11:55;;;;;;;12.93;5.85;;;27.90;96.80;;;;;;5064253;28;20044;-65
2023/06/20 12:14:24;;;;;;;7.60;5.63;;;27.80;95.40;;;;;;5050311;28;20494;-66
2023/06/20 12:16:51;;;;;;;7.80;5.35;;;27.70;95.80;;;;;;5072277;28;20468;-68
2023/06/20 12:19:21;;;;;;;8.52;5.57;;;27.90;96.10;;;;;;5061262;28;20219;-68
2023/06/20 12:21:48;;;;;;;7.38;4.75;;;28.00;95.50;;;;;;5057028;28;20048;-67
2023/06/20 12:24:14;;;;;;;10.00;5.45;;;28.10;95.00;;;;;;5060984;28;20489;-67
2023/06/20 12:26:39;;;;;;;7.95;5.60;;;28.10;94.30;;;;;;5071077;28;20141;-69
2023/06/20 12:29:08;;;;;;;8.27;4.90;;;28.20;94.10;;;;;;5067218;28;20056;-67
2023/06/20 12:31:34;;;;;;;7.82;5.28;;;28.20;94.00;;;;;;5072814;28;20159;-66
2023/06/20 12:34:00;;;;;;;8.77;4.70;;;28.40;93.90;;;;;;5068794;28;20043;-69
2023/06/20 12:36:25;;;;;;;7.88;4.97;;;28.50;93.10;;;;;;5072162;28;20055;-70
2023/06/20 12:38:51;;;;;;;7.22;4.95;;;28.50;92.90;;;;;;5060685;28;20802;-68
2023/06/20 12:41:17;;;;;;;9.77;6.28;;;28.50;92.60;;;;;;5048525;28;20364;-67